Time;durP1;ratioP1;P1;durP2;ratioP2;P2;SDS_P1;SDS_P2;PMS_P1;PMS_P2;Temp;Humidity;BMP_temperature;BMP_pressure;BME280_temperature;BME280_humidity;BME280_pressure;Samples;Min_cycle;Max_cycle;Signal;HPM_P1;HPM_P2
2023/12/06 00:01:50;;;;;;;2.40;0.43;;;8.00;99.90;;;;;;5045242;28;20229;-59
2023/12/06 00:04:17;;;;;;;0.73;0.50;;;8.00;99.90;;;;;;5047037;28;20228;-61
2023/12/06 00:06:43;;;;;;;0.40;0.40;;;7.90;99.90;;;;;;5045742;28;20205;-60
2023/12/06 00:09:12;;;;;;;0.43;0.43;;;8.00;99.90;;;;;;5043203;28;20229;-61
2023/12/06 00:11:38;;;;;;;0.50;0.40;;;7.90;99.90;;;;;;5043041;28;20226;-61
2023/12/06 00:14:05;;;;;;;0.57;0.50;;;7.90;99.90;;;;;;5046568;28;20198;-61
2023/12/06 00:16:32;;;;;;;0.50;0.33;;;7.90;99.90;;;;;;5046198;28;20586;-60
2023/12/06 00:18:58;;;;;;;0.70;0.57;;;8.00;99.90;;;;;;5043274;28;20203;-60
2023/12/06 00:21:25;;;;;;;0.60;0.40;;;8.00;99.90;;;;;;5042570;28;20280;-61
2023/12/06 00:23:52;;;;;;;0.90;0.43;;;7.90;99.90;;;;;;5044873;28;20237;-60
2023/12/06 00:26:20;;;;;;;0.73;0.40;;;8.00;99.90;;;;;;5046328;28;20209;-61
2023/12/06 00:28:46;;;;;;;0.70;0.57;;;8.00;99.90;;;;;;5044934;28;20206;-61
2023/12/06 00:31:13;;;;;;;0.73;0.57;;;8.00;99.90;;;;;;5042651;28;20222;-61
2023/12/06 00:33:39;;;;;;;1.20;0.83;;;7.90;99.90;;;;;;5042680;28;20278;-61
2023/12/06 00:36:07;;;;;;;0.40;0.40;;;7.90;99.90;;;;;;5046298;28;20228;-60
2023/12/06 00:38:33;;;;;;;0.97;0.87;;;7.90;99.90;;;;;;5045818;28;20209;-62
2023/12/06 00:41:01;;;;;;;0.50;0.50;;;7.90;99.90;;;;;;5042630;28;20222;-61
2023/12/06 00:43:29;;;;;;;0.60;0.50;;;7.90;99.90;;;;;;5042488;28;20248;-61
2023/12/06 00:45:55;;;;;;;0.67;0.60;;;8.00;99.90;;;;;;5045069;28;20217;-63
2023/12/06 00:48:22;;;;;;;0.30;0.30;;;7.90;99.90;;;;;;5046056;28;20596;-59
2023/12/06 00:50:49;;;;;;;0.47;0.30;;;7.80;99.90;;;;;;5044567;28;20236;-60
2023/12/06 00:53:15;;;;;;;0.60;0.40;;;7.80;99.90;;;;;;5042355;28;20202;-61
2023/12/06 00:55:42;;;;;;;1.20;0.60;;;7.80;99.90;;;;;;5043126;28;20584;-60
2023/12/06 00:58:09;;;;;;;0.30;0.30;;;7.80;99.90;;;;;;5045789;28;20222;-61
2023/12/06 01:00:37;;;;;;;0.73;0.50;;;7.80;99.90;;;;;;5045648;28;20698;-60
2023/12/06 01:03:04;;;;;;;0.50;0.50;;;7.80;99.90;;;;;;5045920;28;20198;-61
2023/12/06 01:05:30;;;;;;;0.40;0.40;;;7.70;99.90;;;;;;5046149;28;20279;-60
2023/12/06 01:07:57;;;;;;;0.93;0.30;;;7.80;99.90;;;;;;5042777;28;20202;-60
2023/12/06 01:10:24;;;;;;;0.67;0.60;;;7.80;99.90;;;;;;5042500;28;20230;-60
2023/12/06 01:12:50;;;;;;;0.60;0.60;;;7.90;99.90;;;;;;5043610;28;20233;-60
2023/12/06 01:15:17;;;;;;;0.53;0.50;;;7.90;99.90;;;;;;5045288;28;20205;-60
2023/12/06 01:17:46;;;;;;;0.57;0.57;;;7.90;99.90;;;;;;5044138;28;20699;-62
2023/12/06 01:20:12;;;;;;;0.30;0.30;;;7.90;99.90;;;;;;5041668;28;20202;-61
2023/12/06 01:22:39;;;;;;;0.60;0.50;;;7.90;99.90;;;;;;5041702;28;20203;-61
2023/12/06 01:25:07;;;;;;;1.07;0.47;;;7.90;99.90;;;;;;5045244;28;20198;-62
2023/12/06 01:27:35;;;;;;;0.70;0.50;;;7.90;99.90;;;;;;5045013;28;20201;-63
2023/12/06 01:30:02;;;;;;;0.50;0.40;;;7.90;99.90;;;;;;5041726;28;20624;-61
2023/12/06 01:32:28;;;;;;;0.43;0.43;;;7.90;99.90;;;;;;5041740;28;20301;-61
2023/12/06 01:34:56;;;;;;;0.83;0.60;;;8.00;99.90;;;;;;5043671;28;20209;-60
2023/12/06 01:37:23;;;;;;;0.30;0.30;;;8.00;99.90;;;;;;5044600;28;20276;-61
2023/12/06 01:39:50;;;;;;;0.80;0.33;;;8.10;99.90;;;;;;5043386;28;20240;-61
2023/12/06 01:42:16;;;;;;;0.40;0.40;;;8.10;99.90;;;;;;5041259;28;20229;-61
2023/12/06 01:44:43;;;;;;;0.20;0.20;;;8.00;99.90;;;;;;5041626;28;20233;-60
2023/12/06 01:47:10;;;;;;;0.60;0.50;;;8.00;99.90;;;;;;5044633;28;20209;-61
2023/12/06 01:49:37;;;;;;;0.30;0.30;;;7.90;99.90;;;;;;5044668;28;20570;-60
2023/12/06 01:52:06;;;;;;;0.20;0.20;;;7.80;99.90;;;;;;5041024;28;20258;-61
2023/12/06 01:54:33;;;;;;;0.47;0.30;;;7.90;99.90;;;;;;5041286;28;20252;-61
2023/12/06 01:56:59;;;;;;;0.33;0.33;;;7.90;99.90;;;;;;5043415;28;20230;-61
2023/12/06 01:59:27;;;;;;;0.73;0.43;;;7.80;99.90;;;;;;5044544;28;20218;-61
2023/12/06 02:01:54;;;;;;;0.60;0.40;;;7.90;99.90;;;;;;5042349;28;20233;-61
2023/12/06 02:04:21;;;;;;;1.20;0.30;;;7.90;99.90;;;;;;5040422;28;20268;-61
2023/12/06 02:06:48;;;;;;;1.00;0.47;;;7.90;99.90;;;;;;5041810;28;20593;-61
2023/12/06 02:09:16;;;;;;;2.60;1.63;;;7.90;99.90;;;;;;5044115;28;20197;-61
2023/12/06 02:11:43;;;;;;;10.07;5.13;;;7.90;99.90;;;;;;5043495;28;20229;-61
2023/12/06 02:14:10;;;;;;;10.27;4.90;;;7.90;99.90;;;;;;5040834;28;20264;-61
2023/12/06 02:16:36;;;;;;;1.60;1.03;;;7.90;99.90;;;;;;5040809;28;20602;-61
2023/12/06 02:19:04;;;;;;;0.70;0.40;;;7.90;99.90;;;;;;5043603;28;20201;-61
2023/12/06 02:21:31;;;;;;;0.63;0.50;;;7.90;99.90;;;;;;5043709;28;20271;-60
2023/12/06 02:23:59;;;;;;;0.43;0.40;;;7.90;99.90;;;;;;5041512;28;20206;-61
2023/12/06 02:26:27;;;;;;;0.67;0.40;;;7.80;99.90;;;;;;5040707;28;20299;-61
2023/12/06 02:28:55;;;;;;;0.30;0.30;;;7.70;99.90;;;;;;5042155;28;20337;-61
2023/12/06 02:31:22;;;;;;;0.40;0.30;;;7.70;99.90;;;;;;5043721;28;20217;-61
2023/12/06 02:33:52;;;;;;;0.67;0.30;;;7.80;99.90;;;;;;5042611;28;20734;-61
2023/12/06 02:36:21;;;;;;;0.40;0.40;;;7.80;99.90;;;;;;5040478;28;20198;-61
2023/12/06 02:38:47;;;;;;;0.33;0.30;;;7.90;99.90;;;;;;5040693;28;20213;-61
2023/12/06 02:41:17;;;;;;;0.33;0.30;;;7.90;99.90;;;;;;5043449;28;20362;-60
2023/12/06 02:43:45;;;;;;;0.40;0.37;;;7.90;99.90;;;;;;5043295;28;20289;-61
2023/12/06 02:46:12;;;;;;;0.70;0.40;;;7.90;99.90;;;;;;5040192;28;20708;-60
2023/12/06 02:48:40;;;;;;;0.20;0.20;;;8.00;99.90;;;;;;5039936;28;20202;-61
2023/12/06 02:51:07;;;;;;;0.53;0.33;;;8.00;99.90;;;;;;5039864;28;20268;-61
2023/12/06 02:53:34;;;;;;;0.43;0.20;;;8.00;99.90;;;;;;5040262;28;20207;-61
2023/12/06 02:56:01;;;;;;;0.80;0.40;;;8.00;99.90;;;;;;5042550;28;20591;-60
2023/12/06 02:58:27;;;;;;;0.60;0.20;;;8.00;99.90;;;;;;5043184;28;20616;-60
2023/12/06 03:00:56;;;;;;;0.43;0.30;;;7.90;99.90;;;;;;5041465;28;20232;-61
2023/12/06 03:03:23;;;;;;;1.90;0.53;;;7.90;99.90;;;;;;5039901;28;20206;-60
2023/12/06 03:05:49;;;;;;;0.50;0.40;;;7.90;99.90;;;;;;5040572;28;20575;-61
2023/12/06 03:08:16;;;;;;;0.37;0.30;;;7.90;99.90;;;;;;5043242;28;20259;-61
2023/12/06 03:10:43;;;;;;;0.73;0.30;;;7.90;99.90;;;;;;5043180;28;20585;-61
2023/12/06 03:13:10;;;;;;;1.53;0.40;;;7.80;99.90;;;;;;5039942;28;20202;-61
2023/12/06 03:15:36;;;;;;;0.33;0.33;;;7.90;99.90;;;;;;5039767;28;20202;-61
2023/12/06 03:18:04;;;;;;;0.20;0.20;;;7.90;99.90;;;;;;5042152;28;20653;-60
2023/12/06 03:20:31;;;;;;;0.33;0.33;;;7.80;99.90;;;;;;5043041;28;20232;-60
2023/12/06 03:22:58;;;;;;;0.20;0.20;;;7.80;99.90;;;;;;5041042;28;20703;-61
2023/12/06 03:25:24;;;;;;;0.20;0.20;;;7.80;99.90;;;;;;5039940;28;20625;-61
2023/12/06 03:27:51;;;;;;;0.60;0.60;;;7.80;99.90;;;;;;5040449;28;20608;-61
2023/12/06 03:30:18;;;;;;;0.60;0.30;;;7.80;99.90;;;;;;5043336;28;20267;-61
2023/12/06 03:32:44;;;;;;;0.30;0.30;;;7.80;99.90;;;;;;5042325;28;20679;-61
2023/12/06 03:35:12;;;;;;;0.40;0.40;;;7.80;99.90;;;;;;5039775;28;20206;-60
2023/12/06 03:37:39;;;;;;;1.07;0.77;;;7.80;99.90;;;;;;5039362;28;20230;-60
2023/12/06 03:40:07;;;;;;;0.47;0.43;;;7.80;99.90;;;;;;5042462;28;20205;-60
2023/12/06 03:42:34;;;;;;;0.30;0.30;;;7.80;99.90;;;;;;5042954;28;20202;-60
2023/12/06 03:45:00;;;;;;;0.70;0.30;;;7.80;99.90;;;;;;5040387;28;20263;-60
2023/12/06 03:47:27;;;;;;;0.43;0.27;;;7.90;99.90;;;;;;5039071;28;20572;-60
2023/12/06 03:49:54;;;;;;;0.37;0.30;;;7.80;99.90;;;;;;5040657;28;20645;-59
2023/12/06 03:52:22;;;;;;;0.33;0.20;;;7.80;99.90;;;;;;5042730;28;20228;-61
2023/12/06 03:54:49;;;;;;;0.87;0.60;;;7.90;99.90;;;;;;5042137;28;20309;-60
2023/12/06 03:57:16;;;;;;;0.30;0.30;;;7.90;99.90;;;;;;5039090;28;20700;-60
2023/12/06 03:59:43;;;;;;;0.63;0.30;;;7.90;99.90;;;;;;5039189;28;20611;-60
2023/12/06 04:02:10;;;;;;;0.43;0.40;;;7.90;99.90;;;;;;5042909;28;20358;-60
2023/12/06 04:04:36;;;;;;;0.97;0.30;;;8.00;99.90;;;;;;5042737;28;20293;-61
2023/12/06 04:07:03;;;;;;;0.53;0.40;;;8.00;99.90;;;;;;5039805;28;20201;-61
2023/12/06 04:09:31;;;;;;;0.30;0.30;;;8.00;99.90;;;;;;5039091;28;20652;-60
2023/12/06 04:11:58;;;;;;;0.50;0.37;;;7.90;99.90;;;;;;5040909;28;20237;-60
2023/12/06 04:14:25;;;;;;;0.10;0.10;;;7.80;99.90;;;;;;5042388;28;20202;-60
2023/12/06 04:16:52;;;;;;;0.30;0.30;;;7.80;99.90;;;;;;5041240;28;20209;-61
2023/12/06 04:19:18;;;;;;;0.53;0.47;;;7.80;99.90;;;;;;5038898;28;20202;-61
2023/12/06 04:21:45;;;;;;;0.57;0.50;;;7.90;99.90;;;;;;5069809;22;20237;-63
2023/12/06 04:24:12;;;;;;;0.63;0.40;;;7.90;99.90;;;;;;5042261;28;20212;-62
2023/12/06 04:26:40;;;;;;;0.23;0.23;;;7.90;99.90;;;;;;5042357;28;20228;-62
2023/12/06 04:29:06;;;;;;;0.93;0.40;;;7.90;99.90;;;;;;5041442;28;20206;-62
2023/12/06 04:31:33;;;;;;;1.37;0.30;;;7.80;99.90;;;;;;5042257;28;20252;-65
2023/12/06 04:34:00;;;;;;;0.30;0.30;;;7.80;99.90;;;;;;5044602;28;20202;-64
2023/12/06 04:36:26;;;;;;;0.37;0.37;;;7.80;99.90;;;;;;5045824;28;20209;-64
2023/12/06 04:38:53;;;;;;;0.33;0.33;;;7.90;99.90;;;;;;5044156;28;20312;-64
2023/12/06 04:41:20;;;;;;;0.97;0.33;;;7.90;99.90;;;;;;5042099;28;20632;-64
2023/12/06 04:43:48;;;;;;;0.87;0.67;;;7.90;99.90;;;;;;5042162;28;20222;-64
2023/12/06 04:46:15;;;;;;;0.27;0.27;;;7.90;99.90;;;;;;5045748;28;20209;-63
2023/12/06 04:48:41;;;;;;;0.73;0.30;;;7.90;99.90;;;;;;5045469;28;20229;-64
2023/12/06 04:51:09;;;;;;;0.53;0.40;;;7.90;99.90;;;;;;5042178;28;20272;-63
2023/12/06 04:53:35;;;;;;;0.33;0.33;;;7.90;99.90;;;;;;5042085;28;20735;-63
2023/12/06 04:56:02;;;;;;;2.53;0.30;;;7.90;99.90;;;;;;5044250;28;20241;-63
2023/12/06 04:58:29;;;;;;;0.93;0.67;;;7.90;99.90;;;;;;5045143;28;20746;-63
2023/12/06 05:00:57;;;;;;;0.70;0.47;;;7.90;99.90;;;;;;5043696;28;20578;-63
2023/12/06 05:03:24;;;;;;;0.33;0.33;;;8.00;99.90;;;;;;5042040;28;20206;-63
2023/12/06 05:05:51;;;;;;;1.10;0.77;;;7.90;99.90;;;;;;5042603;28;20248;-64
2023/12/06 05:08:17;;;;;;;2.97;1.50;;;7.90;99.90;;;;;;5045104;28;20201;-63
2023/12/06 05:10:44;;;;;;;0.70;0.47;;;7.90;99.90;;;;;;5044986;28;20229;-63
2023/12/06 05:13:11;;;;;;;0.30;0.30;;;7.90;99.90;;;;;;5041831;28;20207;-63
2023/12/06 05:15:37;;;;;;;1.87;1.67;;;7.90;99.90;;;;;;5041662;28;20210;-63
2023/12/06 05:18:05;;;;;;;0.50;0.40;;;7.90;99.90;;;;;;5043814;28;20226;-63
2023/12/06 05:20:32;;;;;;;3.97;0.50;;;7.80;99.90;;;;;;5044852;28;20201;-63
2023/12/06 05:22:59;;;;;;;0.67;0.50;;;7.80;99.90;;;;;;5042967;28;20206;-63
2023/12/06 05:25:25;;;;;;;0.53;0.40;;;7.80;99.90;;;;;;5041426;28;20245;-63
2023/12/06 05:27:53;;;;;;;0.37;0.30;;;7.80;99.90;;;;;;5042587;28;20240;-64
2023/12/06 05:30:19;;;;;;;0.60;0.40;;;7.80;99.90;;;;;;5045081;28;20321;-63
2023/12/06 05:32:46;;;;;;;0.80;0.43;;;7.80;99.90;;;;;;5044751;28;20226;-64
2023/12/06 05:35:14;;;;;;;2.07;0.90;;;7.80;99.90;;;;;;5041371;28;20202;-63
2023/12/06 05:37:41;;;;;;;1.83;0.80;;;7.90;99.90;;;;;;5041028;28;20222;-63
2023/12/06 05:40:09;;;;;;;1.30;0.60;;;7.90;99.90;;;;;;5042992;28;20202;-63
2023/12/06 05:42:36;;;;;;;0.30;0.30;;;8.00;99.90;;;;;;5044552;28;20312;-63
2023/12/06 05:45:04;;;;;;;1.60;0.37;;;8.00;99.90;;;;;;5042155;28;20239;-63
2023/12/06 05:47:30;;;;;;;0.60;0.50;;;7.90;99.90;;;;;;5040944;28;20202;-63
2023/12/06 05:49:57;;;;;;;1.23;0.60;;;7.80;99.90;;;;;;5042366;28;20207;-63
2023/12/06 05:52:25;;;;;;;1.23;0.50;;;7.90;99.90;;;;;;5044003;28;20221;-63
2023/12/06 05:54:52;;;;;;;0.90;0.77;;;7.90;99.90;;;;;;5043561;28;20271;-63
2023/12/06 05:57:19;;;;;;;0.77;0.53;;;7.90;99.90;;;;;;5040829;28;20292;-63
2023/12/06 05:59:46;;;;;;;4.53;3.10;;;7.70;99.90;;;;;;5040720;28;20556;-63
2023/12/06 06:02:13;;;;;;;1.30;0.57;;;8.00;99.90;;;;;;5040446;28;20243;-63
2023/12/06 06:04:40;;;;;;;0.53;0.50;;;7.90;99.90;;;;;;5040831;28;20233;-63
2023/12/06 06:07:06;;;;;;;0.60;0.33;;;7.90;99.90;;;;;;5042968;28;20207;-64
2023/12/06 06:09:35;;;;;;;0.70;0.50;;;7.90;99.90;;;;;;5044265;28;20289;-63
2023/12/06 06:12:03;;;;;;;0.63;0.43;;;7.90;99.90;;;;;;5041692;28;20225;-64
2023/12/06 06:14:30;;;;;;;2.47;1.90;;;7.90;99.90;;;;;;5040459;28;20256;-64
2023/12/06 06:16:57;;;;;;;0.47;0.37;;;8.00;99.90;;;;;;5041302;28;20206;-65
2023/12/06 06:19:23;;;;;;;1.00;0.83;;;8.10;99.90;;;;;;5043490;28;20292;-62
2023/12/06 06:21:50;;;;;;;1.93;1.00;;;8.10;99.90;;;;;;5042970;28;20229;-62
2023/12/06 06:24:17;;;;;;;0.87;0.60;;;8.10;99.90;;;;;;5040734;28;20217;-64
2023/12/06 06:26:45;;;;;;;1.33;0.70;;;8.10;99.90;;;;;;5040419;28;20241;-63
2023/12/06 06:29:11;;;;;;;0.57;0.57;;;8.10;99.90;;;;;;5043015;28;20232;-62
2023/12/06 06:31:38;;;;;;;1.53;1.03;;;8.00;99.90;;;;;;5043219;28;20234;-63
2023/12/06 06:34:05;;;;;;;0.90;0.60;;;8.10;99.90;;;;;;5040836;28;20210;-63
2023/12/06 06:36:31;;;;;;;1.17;0.57;;;8.10;99.90;;;;;;5040344;28;20610;-62
2023/12/06 06:38:58;;;;;;;1.70;0.63;;;8.20;99.90;;;;;;5040970;28;20230;-62
2023/12/06 06:41:25;;;;;;;0.63;0.60;;;8.20;99.90;;;;;;5043467;28;20229;-62
2023/12/06 06:43:53;;;;;;;0.57;0.50;;;8.20;99.90;;;;;;5043378;28;20292;-64
2023/12/06 06:46:20;;;;;;;1.30;0.67;;;8.10;99.90;;;;;;5039882;28;20198;-64
2023/12/06 06:48:48;;;;;;;0.70;0.57;;;8.00;99.90;;;;;;5039552;28;20253;-62
2023/12/06 06:51:14;;;;;;;1.67;1.00;;;8.00;99.90;;;;;;5042621;28;20768;-62
2023/12/06 06:53:41;;;;;;;2.93;1.43;;;8.10;99.90;;;;;;5043374;28;20255;-62
2023/12/06 06:56:08;;;;;;;1.03;0.80;;;8.10;99.90;;;;;;5040212;28;20205;-63
2023/12/06 06:58:35;;;;;;;0.67;0.47;;;8.10;99.90;;;;;;5039338;28;20688;-63
2023/12/06 07:01:03;;;;;;;2.17;0.70;;;8.00;99.90;;;;;;5040911;28;20226;-63
2023/12/06 07:03:32;;;;;;;0.87;0.70;;;8.00;99.90;;;;;;5042882;28;20201;-63
2023/12/06 07:06:01;;;;;;;1.10;0.87;;;8.00;99.90;;;;;;5041738;28;20206;-63
2023/12/06 07:08:29;;;;;;;4.73;2.50;;;8.00;99.90;;;;;;5039673;28;20624;-63
2023/12/06 07:10:56;;;;;;;1.77;1.23;;;7.90;99.90;;;;;;5040014;28;20311;-63
2023/12/06 07:13:23;;;;;;;0.60;0.50;;;7.90;99.90;;;;;;5042703;28;20675;-65
2023/12/06 07:15:50;;;;;;;1.83;0.70;;;7.90;99.90;;;;;;5042409;28;20745;-62
2023/12/06 07:18:18;;;;;;;20.23;3.37;;;7.90;99.90;;;;;;5039148;28;20698;-63
2023/12/06 07:20:45;;;;;;;6.93;1.93;;;7.90;99.90;;;;;;5039159;28;20226;-62
2023/12/06 07:23:12;;;;;;;7.37;2.30;;;7.90;99.90;;;;;;5042211;28;20288;-62
2023/12/06 07:25:39;;;;;;;3.77;1.40;;;8.30;99.90;;;;;;5042773;28;20212;-64
2023/12/06 07:28:05;;;;;;;20.57;2.80;;;8.00;99.90;;;;;;5039994;28;20201;-65
2023/12/06 07:30:32;;;;;;;2.97;1.33;;;8.00;99.90;;;;;;5039259;28;20264;-64
2023/12/06 07:32:59;;;;;;;15.63;2.60;;;8.10;99.90;;;;;;5040428;28;20210;-62
2023/12/06 07:35:27;;;;;;;20.83;4.37;;;8.10;99.90;;;;;;5042814;28;20209;-62
2023/12/06 07:37:53;;;;;;;11.13;2.67;;;8.10;99.90;;;;;;5041734;28;20206;-64
2023/12/06 07:40:20;;;;;;;4.30;2.17;;;8.10;99.90;;;;;;5039024;28;20222;-64
2023/12/06 07:42:48;;;;;;;0.90;0.80;;;8.10;99.90;;;;;;5038997;28;20264;-64
2023/12/06 07:45:15;;;;;;;13.67;2.13;;;8.00;99.90;;;;;;5042626;28;20623;-64
2023/12/06 07:47:42;;;;;;;6.70;2.00;;;8.00;99.90;;;;;;5042399;28;20209;-64
2023/12/06 07:50:09;;;;;;;4.63;0.90;;;8.00;99.90;;;;;;5039674;28;20679;-63
2023/12/06 07:52:39;;;;;;;20.13;3.23;;;8.10;99.90;;;;;;5038912;28;20320;-64
2023/12/06 07:55:06;;;;;;;8.20;2.17;;;8.10;99.90;;;;;;5041047;28;20233;-64
2023/12/06 07:57:33;;;;;;;1.53;0.63;;;8.20;99.90;;;;;;5042089;28;20289;-63
2023/12/06 08:00:00;;;;;;;2.23;0.80;;;8.30;99.90;;;;;;5040796;28;20226;-63
2023/12/06 08:02:27;;;;;;;5.57;1.10;;;8.40;99.90;;;;;;5038635;28;20226;-63
2023/12/06 08:04:54;;;;;;;1.83;1.00;;;8.50;99.90;;;;;;5043552;28;20268;-63
2023/12/06 08:07:22;;;;;;;1.33;0.90;;;8.60;99.90;;;;;;5046621;28;20202;-63
2023/12/06 08:09:52;;;;;;;1.63;0.83;;;8.50;99.90;;;;;;5046435;28;20308;-63
2023/12/06 08:12:19;;;;;;;1.03;0.70;;;8.50;99.90;;;;;;5048020;28;20749;-63
2023/12/06 08:14:45;;;;;;;3.03;0.77;;;8.60;99.90;;;;;;5047558;28;20567;-63
2023/12/06 08:17:12;;;;;;;1.33;1.23;;;8.60;99.90;;;;;;5043537;28;20601;-63
2023/12/06 08:19:39;;;;;;;1.97;1.40;;;8.60;99.90;;;;;;5043415;28;20226;-63
2023/12/06 08:22:06;;;;;;;2.20;1.47;;;8.60;99.90;;;;;;5044380;28;20781;-63
2023/12/06 08:24:34;;;;;;;8.17;7.00;;;8.50;99.90;;;;;;5046032;28;20202;-63
2023/12/06 08:27:02;;;;;;;2.20;2.00;;;8.40;99.90;;;;;;5045072;28;20289;-64
2023/12/06 08:29:30;;;;;;;2.60;2.40;;;8.40;99.90;;;;;;5042694;28;20694;-63
2023/12/06 08:31:57;;;;;;;2.40;2.00;;;8.50;99.90;;;;;;5043103;28;20226;-63
2023/12/06 08:34:24;;;;;;;2.70;2.50;;;8.40;99.90;;;;;;5045844;28;20265;-63
2023/12/06 08:36:51;;;;;;;3.60;3.07;;;8.50;99.90;;;;;;5045690;28;20205;-63
2023/12/06 08:39:17;;;;;;;3.50;3.10;;;8.50;99.90;;;;;;5045248;28;20225;-63
2023/12/06 08:41:44;;;;;;;3.90;3.47;;;8.40;99.90;;;;;;5045595;28;20225;-62
2023/12/06 08:44:12;;;;;;;4.27;3.80;;;8.40;99.90;;;;;;5042971;28;20236;-64
2023/12/06 08:46:39;;;;;;;4.77;3.63;;;8.40;99.90;;;;;;5042162;28;20272;-64
2023/12/06 08:49:05;;;;;;;5.07;3.70;;;8.30;99.90;;;;;;5043642;28;20210;-62
2023/12/06 08:51:32;;;;;;;4.53;4.10;;;8.30;99.90;;;;;;5045292;28;20295;-64
2023/12/06 08:53:59;;;;;;;4.00;3.60;;;8.40;99.90;;;;;;5044645;28;20296;-64
2023/12/06 08:56:25;;;;;;;4.60;4.17;;;8.40;99.90;;;;;;5041775;28;20863;-62
2023/12/06 08:58:52;;;;;;;5.13;4.60;;;8.20;99.90;;;;;;5041752;28;20317;-65
2023/12/06 09:01:20;;;;;;;5.80;5.20;;;8.00;99.90;;;;;;5049983;28;20218;-63
2023/12/06 09:03:47;;;;;;;4.93;4.43;;;7.90;99.90;;;;;;5042018;28;20699;-62
2023/12/06 09:06:13;;;;;;;5.53;5.00;;;7.90;99.90;;;;;;5044495;28;20647;-65
2023/12/06 09:08:40;;;;;;;6.00;5.33;;;8.00;99.90;;;;;;5045082;28;20205;-63
2023/12/06 09:11:07;;;;;;;5.97;5.23;;;8.10;99.90;;;;;;5042763;28;20583;-62
2023/12/06 09:13:34;;;;;;;5.90;5.30;;;8.10;99.90;;;;;;5041342;28;20596;-62
2023/12/06 09:16:00;;;;;;;5.47;4.97;;;8.20;99.90;;;;;;5042600;28;20232;-64
2023/12/06 09:18:28;;;;;;;5.50;5.00;;;8.20;99.90;;;;;;5044751;28;20580;-63
2023/12/06 09:20:55;;;;;;;5.80;5.27;;;8.30;99.90;;;;;;5044164;28;20229;-64
2023/12/06 09:23:23;;;;;;;5.50;4.83;;;8.30;99.90;;;;;;5041828;28;20202;-63
2023/12/06 09:25:49;;;;;;;6.07;5.47;;;8.20;99.90;;;;;;5041691;28;20323;-67
2023/12/06 09:28:16;;;;;;;6.33;5.50;;;8.20;99.90;;;;;;5044040;28;20197;-64
2023/12/06 09:30:43;;;;;;;8.00;5.70;;;8.20;99.90;;;;;;5044473;28;20659;-61
2023/12/06 09:33:10;;;;;;;8.57;5.63;;;8.20;99.90;;;;;;5042352;28;20584;-65
2023/12/06 09:35:38;;;;;;;5.90;5.30;;;8.20;99.90;;;;;;5041458;28;20206;-65
2023/12/06 09:38:06;;;;;;;6.57;5.53;;;8.10;99.90;;;;;;5043078;28;20260;-65
2023/12/06 09:40:32;;;;;;;6.20;5.60;;;7.90;99.90;;;;;;5044547;28;20366;-63
2023/12/06 09:43:02;;;;;;;7.20;5.53;;;7.90;99.90;;;;;;5043396;28;20210;-65
2023/12/06 09:45:30;;;;;;;6.33;5.73;;;7.90;99.90;;;;;;5041167;28;20202;-64
2023/12/06 09:47:57;;;;;;;6.90;5.90;;;7.90;99.90;;;;;;5041079;28;20585;-64
2023/12/06 09:50:25;;;;;;;6.77;6.13;;;7.80;99.90;;;;;;5044831;28;20628;-64
2023/12/06 09:52:54;;;;;;;7.10;6.40;;;7.80;99.90;;;;;;5044680;28;20233;-64
2023/12/06 09:55:23;;;;;;;9.90;7.40;;;7.90;99.90;;;;;;5044631;28;20205;-64
2023/12/06 09:57:51;;;;;;;7.87;6.73;;;7.90;99.90;;;;;;5044230;28;20762;-64
2023/12/06 10:00:18;;;;;;;6.90;6.20;;;7.90;99.90;;;;;;5041048;28;20222;-64
2023/12/06 10:02:52;;;;;;;8.17;7.13;;;7.90;99.90;;;;;;5040865;28;20226;-64
2023/12/06 10:05:19;;;;;;;6.87;5.97;;;8.00;99.90;;;;;;5044027;28;20687;-64
2023/12/06 10:07:46;;;;;;;7.77;6.53;;;7.90;99.90;;;;;;5043963;28;20636;-64
2023/12/06 10:10:20;;;;;;;6.77;6.07;;;7.90;99.90;;;;;;5041367;28;20360;-64
2023/12/06 10:12:49;;;;;;;7.17;6.20;;;7.90;99.90;;;;;;5040375;28;20226;-64
2023/12/06 10:15:17;;;;;;;7.43;6.63;;;7.90;99.90;;;;;;5043392;28;20255;-64
2023/12/06 10:17:44;;;;;;;7.73;6.93;;;7.90;99.90;;;;;;5043717;28;20263;-65
2023/12/06 10:20:11;;;;;;;7.33;6.63;;;7.90;99.90;;;;;;5041695;28;20460;-65
2023/12/06 10:22:37;;;;;;;6.93;6.20;;;7.80;99.90;;;;;;5040314;28;20230;-61
2023/12/06 10:25:06;;;;;;;7.97;6.33;;;7.90;99.90;;;;;;5041177;28;20588;-63
2023/12/06 10:27:35;;;;;;;7.73;6.93;;;7.90;99.90;;;;;;5043042;28;20205;-61
2023/12/06 10:30:02;;;;;;;7.07;6.37;;;7.90;99.90;;;;;;5042802;28;20229;-61
2023/12/06 10:32:31;;;;;;;7.80;7.03;;;7.90;99.90;;;;;;5039976;28;20313;-62
2023/12/06 10:35:00;;;;;;;6.80;6.10;;;7.90;99.90;;;;;;5040390;28;20264;-62
2023/12/06 10:37:28;;;;;;;7.07;6.37;;;7.90;99.90;;;;;;5043239;28;20202;-62
2023/12/06 10:39:59;;;;;;;6.97;6.27;;;7.80;99.90;;;;;;5043356;28;20217;-61
2023/12/06 10:42:32;;;;;;;8.50;6.63;;;7.90;99.90;;;;;;5043601;28;20316;-62
2023/12/06 10:45:02;;;;;;;7.97;6.70;;;7.80;99.90;;;;;;5042785;28;20215;-61
2023/12/06 10:47:29;;;;;;;8.37;6.60;;;7.90;99.90;;;;;;5039533;28;20285;-63
2023/12/06 10:49:57;;;;;;;7.13;6.37;;;8.00;99.90;;;;;;5039716;28;20202;-63
2023/12/06 10:52:24;;;;;;;7.33;6.63;;;8.00;99.90;;;;;;5042849;28;20309;-63
2023/12/06 10:54:52;;;;;;;7.67;6.83;;;8.00;99.90;;;;;;5042883;28;20214;-62
2023/12/06 10:57:19;;;;;;;7.93;6.77;;;8.10;99.90;;;;;;5039856;28;20252;-62
2023/12/06 10:59:46;;;;;;;6.90;6.13;;;8.10;99.90;;;;;;5039677;28;20528;-62
2023/12/06 11:02:16;;;;;;;7.10;6.33;;;8.20;99.90;;;;;;5041499;28;20230;-62
2023/12/06 11:04:48;;;;;;;6.90;6.20;;;8.20;99.90;;;;;;5042689;28;20206;-62
2023/12/06 11:07:26;;;;;;;6.50;5.90;;;8.10;99.90;;;;;;5039951;28;20301;-61
2023/12/06 11:10:02;;;;;;;7.10;6.17;;;8.10;99.90;;;;;;5039470;28;20256;-61
2023/12/06 11:12:38;;;;;;;11.43;9.33;;;8.10;99.90;;;;;;5035584;28;20227;-61
2023/12/06 11:15:19;;;;;;;6.77;5.97;;;8.10;99.90;;;;;;5041588;28;20216;-62
2023/12/06 11:17:57;;;;;;;8.60;6.90;;;8.20;99.90;;;;;;5045540;28;20562;-61
2023/12/06 11:20:25;;;;;;;6.80;6.20;;;8.10;99.90;;;;;;5042638;28;20294;-62
2023/12/06 11:22:52;;;;;;;6.60;5.93;;;8.10;99.90;;;;;;5042284;28;20205;-63
2023/12/06 11:25:20;;;;;;;8.87;6.43;;;8.10;99.90;;;;;;5039452;28;20261;-62
2023/12/06 11:27:50;;;;;;;18.33;13.47;;;8.20;99.90;;;;;;5038416;28;20280;-61
2023/12/06 11:30:17;;;;;;;7.73;6.50;;;8.20;99.90;;;;;;5039186;28;20244;-62
2023/12/06 11:32:45;;;;;;;6.87;6.10;;;8.20;99.90;;;;;;5039017;28;20245;-60
2023/12/06 11:35:13;;;;;;;7.00;6.10;;;8.00;99.90;;;;;;5045440;28;20816;-60
2023/12/06 11:37:40;;;;;;;7.33;6.27;;;7.90;99.90;;;;;;5039280;28;20232;-60
2023/12/06 11:40:18;;;;;;;6.87;5.90;;;7.90;99.90;;;;;;5041622;28;20868;-61
2023/12/06 11:42:54;;;;;;;6.87;6.17;;;8.00;99.90;;;;;;5050309;28;20753;-61
2023/12/06 11:45:28;;;;;;;9.20;7.47;;;8.10;99.90;;;;;;5047563;28;20280;-60
2023/12/06 11:47:55;;;;;;;6.27;5.67;;;8.30;99.90;;;;;;5049701;28;20240;-61
2023/12/06 11:50:24;;;;;;;5.63;5.13;;;8.30;99.90;;;;;;5050314;28;20209;-60
2023/12/06 11:52:53;;;;;;;7.03;5.50;;;8.40;99.90;;;;;;5050780;28;20301;-61
2023/12/06 11:55:20;;;;;;;6.10;5.50;;;8.40;99.90;;;;;;5050305;28;20208;-61
2023/12/06 11:58:07;;;;;;;5.97;5.33;;;8.40;99.90;;;;;;5050192;28;20205;-60
2023/12/06 12:00:34;;;;;;;7.37;5.70;;;8.40;99.90;;;;;;5043221;28;20236;-62
2023/12/06 12:03:03;;;;;;;6.47;5.87;;;8.40;99.90;;;;;;5049583;28;20608;-61
2023/12/06 12:05:31;;;;;;;6.43;5.73;;;8.30;99.90;;;;;;5049684;28;20465;-61
2023/12/06 12:08:00;;;;;;;6.83;5.67;;;8.30;99.90;;;;;;5048827;28;20610;-64
2023/12/06 12:10:28;;;;;;;6.93;5.73;;;8.20;99.90;;;;;;5042699;28;20208;-62
2023/12/06 12:12:55;;;;;;;6.97;6.27;;;8.20;99.90;;;;;;5050052;28;20209;-62
2023/12/06 12:15:23;;;;;;;6.20;5.60;;;8.20;99.90;;;;;;5052203;28;20209;-60
2023/12/06 12:17:50;;;;;;;6.57;5.73;;;8.20;99.90;;;;;;5054730;28;20213;-61
2023/12/06 12:20:17;;;;;;;5.90;5.37;;;8.10;99.90;;;;;;5050170;28;20722;-60
2023/12/06 12:22:46;;;;;;;6.67;5.70;;;8.10;99.90;;;;;;5056178;28;20254;-61
2023/12/06 12:25:13;;;;;;;9.40;5.80;;;8.20;99.90;;;;;;5052133;28;20671;-64
2023/12/06 12:27:40;;;;;;;6.50;5.40;;;8.20;99.90;;;;;;5048977;28;20274;-62
2023/12/06 12:30:09;;;;;;;6.63;5.70;;;8.10;99.90;;;;;;5049017;28;20206;-61
2023/12/06 12:32:37;;;;;;;7.13;6.27;;;8.20;99.90;;;;;;5050046;28;20235;-62
2023/12/06 12:35:06;;;;;;;6.87;5.87;;;8.30;99.90;;;;;;5058528;28;20206;-63
2023/12/06 12:37:33;;;;;;;6.80;6.10;;;8.40;99.90;;;;;;5050445;28;20201;-63
2023/12/06 12:40:01;;;;;;;6.33;5.53;;;8.40;99.90;;;;;;5048052;28;20681;-62
2023/12/06 12:42:28;;;;;;;6.70;6.00;;;8.40;99.90;;;;;;5056895;28;20607;-62
2023/12/06 12:44:55;;;;;;;7.97;6.60;;;8.40;99.90;;;;;;5049976;28;20259;-61
2023/12/06 12:47:22;;;;;;;7.87;5.80;;;8.50;99.90;;;;;;5048601;28;20569;-62
2023/12/06 12:49:50;;;;;;;6.50;5.80;;;8.60;99.90;;;;;;5052379;28;20240;-62
2023/12/06 12:52:17;;;;;;;7.63;6.20;;;8.60;99.90;;;;;;5052802;28;20226;-62
2023/12/06 12:54:46;;;;;;;6.37;5.70;;;8.50;99.90;;;;;;5061681;28;20213;-60
2023/12/06 12:57:14;;;;;;;6.97;6.23;;;8.60;99.90;;;;;;5054605;28;20575;-61
2023/12/06 12:59:42;;;;;;;6.93;6.10;;;8.50;99.90;;;;;;5065253;28;20247;-60